createdAt,value
2023-01-21T00:00:56.545Z,-1.70
2023-01-21T00:03:23.923Z,-2.30
2023-01-21T00:05:51.085Z,-2.40
2023-01-21T00:08:17.913Z,-3.00
2023-01-21T00:10:44.768Z,-2.80
2023-01-21T00:13:11.556Z,-2.70
2023-01-21T00:15:38.290Z,-2.50
2023-01-21T00:18:05.070Z,-2.30
2023-01-21T00:20:32.965Z,-2.30
2023-01-21T00:22:59.964Z,-2.30
2023-01-21T00:25:26.667Z,-2.30
2023-01-21T00:27:53.395Z,-2.40
2023-01-21T00:30:20.318Z,-2.30
2023-01-21T00:32:47.613Z,-2.20
2023-01-21T00:35:14.756Z,-2.20
2023-01-21T00:37:41.476Z,-2.10
2023-01-21T00:40:08.936Z,-2.20
2023-01-21T00:42:35.670Z,-2.20
2023-01-21T00:45:02.584Z,-2.00
2023-01-21T00:47:29.279Z,-1.80
2023-01-21T00:49:56.054Z,-1.80
2023-01-21T00:52:22.807Z,-1.70
2023-01-21T00:54:49.522Z,-1.60
2023-01-21T00:57:16.312Z,-1.60
2023-01-21T00:59:43.185Z,-1.60
2023-01-21T01:02:10.563Z,-1.70
2023-01-21T01:04:37.334Z,-1.60
2023-01-21T01:07:04.387Z,-1.70
2023-01-21T01:09:31.727Z,-1.70
2023-01-21T01:11:58.513Z,-1.70
2023-01-21T01:14:25.236Z,-1.70
2023-01-21T01:16:51.917Z,-1.70
2023-01-21T01:19:18.865Z,-1.70
2023-01-21T01:21:45.932Z,-1.70
2023-01-21T01:24:12.614Z,-1.70
2023-01-21T01:26:42.245Z,-1.70
2023-01-21T01:29:13.137Z,-1.80
2023-01-21T01:31:40.114Z,-1.90
2023-01-21T01:34:07.251Z,-1.90
2023-01-21T01:36:34.008Z,-1.90
2023-01-21T01:39:00.709Z,-1.90
2023-01-21T01:41:29.994Z,-2.00
2023-01-21T01:44:02.469Z,-1.90
2023-01-21T01:46:31.902Z,-1.90
2023-01-21T01:49:13.377Z,-1.90
2023-01-21T01:51:54.929Z,-2.10
2023-01-21T01:54:28.554Z,-2.00
2023-01-21T01:57:00.192Z,-2.00
2023-01-21T01:59:27.823Z,-1.90
2023-01-21T02:01:56.605Z,-1.90
2023-01-21T02:04:29.070Z,-2.00
2023-01-21T02:06:57.094Z,-2.00
2023-01-21T02:09:29.696Z,-2.10
2023-01-21T02:12:02.268Z,-2.00
2023-01-21T02:14:30.471Z,-2.30
2023-01-21T02:17:15.588Z,-2.60
2023-01-21T02:20:00.863Z,-2.60
2023-01-21T02:22:53.626Z,-2.90
2023-01-21T02:25:38.649Z,-3.10
2023-01-21T02:28:37.913Z,-2.80
2023-01-21T02:31:30.668Z,-2.70
2023-01-21T02:34:22.237Z,-2.50
2023-01-21T02:37:06.042Z,-2.40
2023-01-21T02:39:48.841Z,-2.70
2023-01-21T02:42:33.802Z,-2.60
2023-01-21T02:45:16.176Z,-2.40
2023-01-21T02:47:42.825Z,-2.60
2023-01-21T02:50:20.863Z,-2.50
2023-01-21T02:53:01.396Z,-2.50
2023-01-21T02:55:32.286Z,-2.60
2023-01-21T02:58:03.364Z,-2.60
2023-01-21T03:00:41.173Z,-2.70
2023-01-21T03:03:56.015Z,-2.60
2023-01-21T03:06:53.461Z,-2.60
2023-01-21T03:09:29.365Z,-2.50
2023-01-21T03:12:14.543Z,-2.50
2023-01-21T03:15:12.087Z,-2.40
2023-01-21T03:17:57.670Z,-2.40
2023-01-21T03:20:37.664Z,-2.50
2023-01-21T03:23:10.302Z,-2.60
2023-01-21T03:25:38.167Z,-2.60
2023-01-21T03:28:11.477Z,-2.60
2023-01-21T03:30:43.208Z,-2.60
2023-01-21T03:33:12.035Z,-2.60
2023-01-21T03:35:43.408Z,-2.60
2023-01-21T03:38:31.503Z,-2.70
2023-01-21T03:41:08.515Z,-2.70
2023-01-21T03:43:35.628Z,-2.70
2023-01-21T03:46:13.938Z,-2.90
2023-01-21T03:49:04.415Z,-2.80
2023-01-21T03:51:38.249Z,-2.80
2023-01-21T03:54:04.909Z,-2.70
2023-01-21T03:56:31.605Z,-2.60
2023-01-21T03:58:58.317Z,-2.60
2023-01-21T04:01:25.073Z,-2.60
2023-01-21T04:03:51.750Z,-2.60
2023-01-21T04:06:20.793Z,-2.80
2023-01-21T04:08:47.662Z,-2.80
2023-01-21T04:11:14.808Z,-2.70
2023-01-21T04:13:41.493Z,-3.10
2023-01-21T04:16:08.528Z,-3.00
2023-01-21T04:18:35.517Z,-3.00
2023-01-21T04:21:02.548Z,-2.80
2023-01-21T04:23:29.329Z,-2.80
2023-01-21T04:25:56.124Z,-2.60
2023-01-21T04:28:22.823Z,-2.70
2023-01-21T04:30:52.712Z,-2.60
2023-01-21T04:33:19.407Z,-2.70
2023-01-21T04:35:46.140Z,-2.90
2023-01-21T04:38:13.099Z,-3.00
2023-01-21T04:40:39.813Z,-2.90
2023-01-21T04:43:06.483Z,-2.90
2023-01-21T04:45:33.514Z,-2.90
2023-01-21T04:48:00.209Z,-2.80
2023-01-21T04:50:27.007Z,-3.00
2023-01-21T04:52:53.673Z,-2.90
2023-01-21T04:55:20.430Z,-2.80
2023-01-21T04:57:47.135Z,-2.90
2023-01-21T05:00:14.361Z,-2.80
2023-01-21T05:02:41.070Z,-2.70
2023-01-21T05:05:08.523Z,-2.60
2023-01-21T05:07:35.483Z,-2.50
2023-01-21T05:10:02.164Z,-2.50
2023-01-21T05:12:28.977Z,-2.60
2023-01-21T05:14:57.819Z,-2.70
2023-01-21T05:17:24.752Z,-2.70
2023-01-21T05:19:51.539Z,-2.60
2023-01-21T05:22:18.952Z,-2.60
2023-01-21T05:24:45.662Z,-2.50
2023-01-21T05:27:12.319Z,-2.70
2023-01-21T05:29:39.822Z,-2.80
2023-01-21T05:32:06.507Z,-2.80
2023-01-21T05:34:33.412Z,-2.90
2023-01-21T05:37:00.114Z,-2.70
2023-01-21T05:39:26.755Z,-2.60
2023-01-21T05:41:53.417Z,-2.50
2023-01-21T05:44:20.046Z,-2.40
2023-01-21T05:46:46.706Z,-2.40
2023-01-21T05:49:13.410Z,-2.60
2023-01-21T05:51:40.070Z,-2.60
2023-01-21T05:54:06.748Z,-2.60
2023-01-21T05:56:33.520Z,-2.90
2023-01-21T05:59:00.201Z,-3.10
2023-01-21T06:01:27.035Z,-3.00
2023-01-21T06:03:53.789Z,-2.80
2023-01-21T06:06:21.555Z,-2.70
2023-01-21T06:08:48.225Z,-2.60
2023-01-21T06:11:14.900Z,-2.60
2023-01-21T06:13:41.593Z,-2.50
2023-01-21T06:16:08.328Z,-2.60
2023-01-21T06:18:35.107Z,-2.80
2023-01-21T06:21:01.937Z,-3.00
2023-01-21T06:23:28.769Z,-3.20
2023-01-21T06:26:00.703Z,-3.10
2023-01-21T06:28:27.561Z,-3.00
2023-01-21T06:30:54.420Z,-2.80
2023-01-21T06:33:21.142Z,-2.70
2023-01-21T06:35:47.801Z,-2.70
2023-01-21T06:38:15.008Z,-2.80
2023-01-21T06:40:43.002Z,-3.00
2023-01-21T06:43:09.862Z,-3.20
2023-01-21T06:45:36.560Z,-3.20
2023-01-21T06:48:03.536Z,-3.20
2023-01-21T06:50:30.265Z,-3.00
2023-01-21T06:52:57.013Z,-2.90
2023-01-21T06:55:23.689Z,-2.70
2023-01-21T06:57:50.389Z,-2.60
2023-01-21T07:00:18.596Z,-2.60
2023-01-21T07:02:45.567Z,-2.50
2023-01-21T07:05:15.190Z,-2.50
2023-01-21T07:07:42.174Z,-2.50
2023-01-21T07:10:09.618Z,-2.60
2023-01-21T07:12:36.356Z,-2.60
2023-01-21T07:15:03.166Z,-2.60
2023-01-21T07:17:29.877Z,-2.60
2023-01-21T07:19:56.581Z,-2.50
2023-01-21T07:22:23.274Z,-2.40
2023-01-21T07:24:50.193Z,-2.40
2023-01-21T07:27:16.978Z,-2.30
2023-01-21T07:29:43.788Z,-2.30
2023-01-21T07:32:10.425Z,-2.40
2023-01-21T07:34:37.085Z,-2.30
2023-01-21T07:37:03.921Z,-2.30
2023-01-21T07:39:30.598Z,-2.20
2023-01-21T07:41:57.396Z,-2.10
2023-01-21T07:44:24.056Z,-2.20
2023-01-21T07:46:51.230Z,-2.10
2023-01-21T07:49:18.492Z,-2.10
2023-01-21T07:51:45.870Z,-2.10
2023-01-21T07:54:13.372Z,-2.00
2023-01-21T07:56:40.811Z,-2.00
2023-01-21T07:59:07.712Z,-2.00
2023-01-21T08:01:34.504Z,-1.90
2023-01-21T08:04:01.263Z,-2.00
2023-01-21T08:06:27.948Z,-2.10
2023-01-21T08:08:54.724Z,-2.00
2023-01-21T08:11:21.529Z,-2.10
2023-01-21T08:13:50.200Z,-2.20
2023-01-21T08:16:17.450Z,-2.20
2023-01-21T08:18:44.211Z,-2.20
2023-01-21T08:21:10.984Z,-2.20
2023-01-21T08:23:37.699Z,-2.10
2023-01-21T08:26:05.836Z,-2.10
2023-01-21T08:28:33.363Z,-2.00
2023-01-21T08:31:09.248Z,-1.90
2023-01-21T08:33:36.096Z,-1.80
2023-01-21T08:36:06.059Z,-1.80
2023-01-21T08:38:33.769Z,-1.80
2023-01-21T08:41:00.656Z,-1.70
2023-01-21T08:43:27.493Z,-1.50
2023-01-21T08:45:58.619Z,-1.50
2023-01-21T08:48:25.460Z,-1.60
2023-01-21T08:50:52.209Z,-1.60
2023-01-21T08:53:19.130Z,-1.60
2023-01-21T08:55:45.880Z,-1.50
2023-01-21T08:58:12.681Z,-1.40
2023-01-21T09:00:39.559Z,-1.40
2023-01-21T09:03:06.300Z,-1.30
2023-01-21T09:05:33.064Z,-1.40
2023-01-21T09:07:59.815Z,-1.30
2023-01-21T09:10:45.013Z,-1.30
2023-01-21T09:13:11.840Z,-1.20
2023-01-21T09:15:40.175Z,-1.10
2023-01-21T09:18:07.232Z,-1.00
2023-01-21T09:20:34.159Z,-0.90
2023-01-21T09:23:00.873Z,-0.80
2023-01-21T09:25:27.923Z,-0.80
2023-01-21T09:27:54.640Z,-0.70
2023-01-21T09:30:21.387Z,-0.70
2023-01-21T09:32:48.052Z,-0.60
2023-01-21T09:35:15.058Z,-0.60
2023-01-21T09:37:41.914Z,-0.50
2023-01-21T09:40:16.200Z,-0.40
2023-01-21T09:42:43.186Z,-0.40
2023-01-21T09:45:14.687Z,-0.40
2023-01-21T09:47:44.950Z,-0.40
2023-01-21T09:50:16.618Z,-0.50
2023-01-21T09:52:50.644Z,-0.50
2023-01-21T09:55:43.765Z,-0.60
2023-01-21T09:58:25.146Z,-0.50
2023-01-21T10:00:58.801Z,-0.60
2023-01-21T10:03:50.535Z,-0.70
2023-01-21T10:06:20.447Z,-0.60
2023-01-21T10:09:25.094Z,-0.60
2023-01-21T10:12:10.312Z,-0.50
2023-01-21T10:14:47.862Z,-0.40
2023-01-21T10:17:23.609Z,-0.50
2023-01-21T10:20:10.372Z,-0.40
2023-01-21T10:22:40.062Z,-0.40
2023-01-21T10:25:24.794Z,-0.30
2023-01-21T10:27:52.424Z,-0.30
2023-01-21T10:30:27.468Z,-0.20
2023-01-21T10:32:55.993Z,-0.20
2023-01-21T10:35:46.036Z,-0.40
2023-01-21T10:38:18.195Z,-0.30
2023-01-21T10:41:29.602Z,-0.40
2023-01-21T10:44:18.077Z,-0.30
2023-01-21T10:46:56.360Z,-0.20
2023-01-21T10:49:25.980Z,-0.10
2023-01-21T10:52:19.087Z,-0.10
2023-01-21T10:54:52.132Z,0.00
2023-01-21T10:57:41.232Z,0.10
2023-01-21T11:00:23.028Z,0.10
2023-01-21T11:02:55.682Z,0.10
2023-01-21T11:05:25.173Z,0.20
2023-01-21T11:07:52.784Z,0.20
2023-01-21T11:10:25.835Z,0.20
2023-01-21T11:12:54.798Z,0.20
2023-01-21T11:15:22.272Z,0.30
2023-01-21T11:17:53.047Z,0.20
2023-01-21T11:20:35.333Z,0.20
2023-01-21T11:23:05.223Z,0.30
2023-01-21T11:25:41.434Z,0.20
2023-01-21T11:28:26.333Z,0.40
2023-01-21T11:31:12.474Z,0.30
2023-01-21T11:33:40.235Z,0.40
2023-01-21T11:36:18.210Z,0.30
2023-01-21T11:38:47.428Z,0.30
2023-01-21T11:41:22.370Z,0.30
2023-01-21T11:43:55.084Z,0.40
2023-01-21T11:46:41.128Z,0.40
2023-01-21T11:49:07.737Z,0.50
2023-01-21T11:51:39.664Z,0.40
2023-01-21T11:54:14.321Z,0.40
2023-01-21T11:56:51.333Z,0.20
2023-01-21T11:59:34.254Z,0.20
2023-01-21T12:02:29.661Z,0.20
2023-01-21T12:05:04.649Z,0.20
2023-01-21T12:07:36.297Z,0.20
2023-01-21T12:10:28.370Z,0.30
2023-01-21T12:13:01.151Z,0.40
2023-01-21T12:15:50.470Z,0.50
2023-01-21T12:18:54.891Z,0.60
2023-01-21T12:21:29.463Z,0.70
2023-01-21T12:24:08.266Z,0.90
2023-01-21T12:26:47.492Z,1.00
2023-01-21T12:29:20.847Z,0.90
2023-01-21T12:31:58.244Z,0.60
2023-01-21T12:34:40.799Z,0.50
2023-01-21T12:37:22.628Z,0.40
2023-01-21T12:39:52.783Z,-0.10
2023-01-21T12:42:21.824Z,0.00
2023-01-21T12:44:57.430Z,0.00
2023-01-21T12:47:32.568Z,-0.10
2023-01-21T12:50:07.384Z,-0.20
2023-01-21T12:53:07.993Z,-0.30
2023-01-21T12:56:00.781Z,-0.40
2023-01-21T12:58:32.909Z,-0.20
2023-01-21T13:01:07.603Z,-0.20
2023-01-21T13:03:43.280Z,-0.10
2023-01-21T13:06:17.047Z,0.00
2023-01-21T13:09:11.708Z,0.00
2023-01-21T13:11:54.702Z,0.00
2023-01-21T13:14:36.502Z,0.00
2023-01-21T13:17:13.077Z,0.00
2023-01-21T13:19:40.340Z,0.00
2023-01-21T13:22:40.382Z,0.00
2023-01-21T13:25:29.876Z,0.00
2023-01-21T13:28:21.340Z,-0.10
2023-01-21T13:31:01.150Z,-0.30
2023-01-21T13:33:53.846Z,-0.30
2023-01-21T13:36:38.629Z,-0.40
2023-01-21T13:39:46.991Z,-0.50
2023-01-21T13:42:16.488Z,-0.30
2023-01-21T13:45:15.981Z,-0.50
2023-01-21T13:47:53.377Z,-0.40
2023-01-21T13:50:22.876Z,-0.40
2023-01-21T13:53:22.903Z,-0.50
2023-01-21T13:56:11.584Z,-0.60
2023-01-21T13:58:44.733Z,-0.50
2023-01-21T14:01:29.786Z,-0.50
2023-01-21T14:04:05.493Z,-0.50
2023-01-21T14:06:59.175Z,-0.40
2023-01-21T14:09:37.162Z,-0.40
2023-01-21T14:12:20.414Z,-0.30
2023-01-21T14:15:08.335Z,-0.30
2023-01-21T14:18:03.221Z,-0.50
2023-01-21T14:20:36.028Z,-0.60
2023-01-21T14:23:20.932Z,-0.50
2023-01-21T14:25:59.638Z,-0.60
2023-01-21T14:28:34.230Z,-0.40
2023-01-21T14:31:04.539Z,-0.50
2023-01-21T14:33:50.261Z,-0.40
2023-01-21T14:36:35.270Z,-0.40
2023-01-21T14:39:21.568Z,-0.30
2023-01-21T14:42:10.252Z,-0.50
2023-01-21T14:45:04.964Z,-0.40
2023-01-21T14:47:31.647Z,-0.50
2023-01-21T14:49:59.482Z,-0.40
2023-01-21T14:52:51.463Z,-0.40
2023-01-21T14:55:26.420Z,-0.40
2023-01-21T14:57:54.681Z,-0.40
2023-01-21T15:00:28.030Z,-0.40
2023-01-21T15:03:27.153Z,-0.40
2023-01-21T15:06:00.567Z,-0.40
2023-01-21T15:08:45.609Z,-0.40
2023-01-21T15:11:21.384Z,-0.40
2023-01-21T15:14:13.586Z,-0.50
2023-01-21T15:16:42.960Z,-0.50
2023-01-21T15:19:12.871Z,-0.50
2023-01-21T15:21:45.321Z,-0.60
2023-01-21T15:24:24.460Z,-0.80
2023-01-21T15:27:14.270Z,-0.80
2023-01-21T15:29:54.419Z,-0.70
2023-01-21T15:32:23.947Z,-0.70
2023-01-21T15:34:57.851Z,-0.70
2023-01-21T15:37:26.216Z,-0.60
2023-01-21T15:40:00.410Z,-0.70
2023-01-21T15:42:35.705Z,-0.70
2023-01-21T15:45:23.620Z,-0.60
2023-01-21T15:48:15.590Z,-0.70
2023-01-21T15:51:00.735Z,-0.70
2023-01-21T15:53:39.509Z,-0.70
2023-01-21T15:56:37.431Z,-0.70
2023-01-21T15:59:31.350Z,-0.80
2023-01-21T16:02:21.969Z,-0.70
2023-01-21T16:05:19.534Z,-0.70
2023-01-21T16:08:24.032Z,-0.60
2023-01-21T16:11:40.559Z,-0.60
2023-01-21T16:14:44.774Z,-0.50
2023-01-21T16:17:25.029Z,-0.60
2023-01-21T16:19:54.824Z,-0.60
2023-01-21T16:22:27.175Z,-0.60
2023-01-21T16:25:07.925Z,-0.60
2023-01-21T16:27:36.057Z,-0.60
2023-01-21T16:30:06.991Z,-0.70
2023-01-21T16:32:33.883Z,-0.90
2023-01-21T16:35:01.027Z,-0.90
2023-01-21T16:37:29.919Z,-0.80
2023-01-21T16:40:31.973Z,-1.00
2023-01-21T16:43:07.004Z,-0.90
2023-01-21T16:45:33.730Z,-1.00
2023-01-21T16:48:00.801Z,-1.10
2023-01-21T16:50:30.403Z,-1.10
2023-01-21T16:52:58.907Z,-1.10
2023-01-21T16:55:28.063Z,-1.00
2023-01-21T16:57:59.856Z,-1.10
2023-01-21T17:00:32.094Z,-1.10
2023-01-21T17:03:00.250Z,-1.10
2023-01-21T17:05:30.674Z,-1.20
2023-01-21T17:07:59.616Z,-1.10
2023-01-21T17:10:39.932Z,-1.30
2023-01-21T17:13:14.165Z,-1.30
2023-01-21T17:15:41.592Z,-1.30
2023-01-21T17:18:21.265Z,-1.30
2023-01-21T17:20:53.852Z,-1.30
2023-01-21T17:23:29.935Z,-1.30
2023-01-21T17:26:03.393Z,-1.30
2023-01-21T17:28:40.131Z,-1.20
2023-01-21T17:31:16.050Z,-1.20
2023-01-21T17:33:43.813Z,-1.30
2023-01-21T17:36:15.742Z,-1.30
2023-01-21T17:38:45.437Z,-1.30
2023-01-21T17:41:27.154Z,-1.40
2023-01-21T17:43:58.253Z,-1.50
2023-01-21T17:46:25.401Z,-1.40
2023-01-21T17:48:57.921Z,-1.40
2023-01-21T17:51:28.333Z,-1.30
2023-01-21T17:53:58.921Z,-1.30
2023-01-21T17:56:42.111Z,-1.20
2023-01-21T17:59:31.377Z,-1.20
2023-01-21T18:01:58.388Z,-1.30
2023-01-21T18:04:25.117Z,-1.20
2023-01-21T18:06:53.149Z,-1.20
2023-01-21T18:09:21.295Z,-1.20
2023-01-21T18:11:49.324Z,-1.20
2023-01-21T18:14:18.355Z,-1.30
2023-01-21T18:16:45.773Z,-1.30
2023-01-21T18:19:34.647Z,-1.20
2023-01-21T18:22:04.174Z,-1.20
2023-01-21T18:24:31.312Z,-1.20
2023-01-21T18:27:00.014Z,-1.10
2023-01-21T18:29:30.607Z,-1.10
2023-01-21T18:31:58.773Z,-1.10
2023-01-21T18:34:25.588Z,-1.10
2023-01-21T18:36:52.432Z,-1.00
2023-01-21T18:39:19.994Z,-1.00
2023-01-21T18:41:47.353Z,-1.00
2023-01-21T18:44:14.805Z,-1.00
2023-01-21T18:46:43.210Z,-0.90
2023-01-21T18:49:19.282Z,-1.00
2023-01-21T18:51:46.431Z,-1.00
2023-01-21T18:54:18.037Z,-1.00
2023-01-21T18:56:46.069Z,-1.10
2023-01-21T18:59:18.038Z,-1.00
2023-01-21T19:01:45.535Z,-1.00
2023-01-21T19:04:15.817Z,-1.10
2023-01-21T19:06:42.941Z,-1.10
2023-01-21T19:09:35.706Z,-1.10
2023-01-21T19:12:02.462Z,-1.10
2023-01-21T19:14:29.143Z,-1.20
2023-01-21T19:16:55.927Z,-1.20
2023-01-21T19:19:25.095Z,-1.20
2023-01-21T19:21:53.501Z,-1.20
2023-01-21T19:24:20.186Z,-1.20
2023-01-21T19:26:47.021Z,-1.20
2023-01-21T19:29:15.672Z,-1.20
2023-01-21T19:31:42.560Z,-1.10
2023-01-21T19:34:10.435Z,-1.20
2023-01-21T19:36:38.030Z,-1.50
2023-01-21T19:39:15.774Z,-1.40
2023-01-21T19:41:42.489Z,-1.30
2023-01-21T19:44:09.320Z,-1.20
2023-01-21T19:46:36.081Z,-1.30
2023-01-21T19:49:12.449Z,-1.40
2023-01-21T19:51:39.192Z,-1.40
2023-01-21T19:54:06.095Z,-1.40
2023-01-21T19:56:32.866Z,-1.40
2023-01-21T19:59:00.165Z,-1.40
2023-01-21T20:01:26.832Z,-1.20
2023-01-21T20:04:00.215Z,-1.10
2023-01-21T20:06:30.005Z,-1.00
2023-01-21T20:08:58.773Z,-1.10
2023-01-21T20:11:25.424Z,-1.20
2023-01-21T20:13:52.108Z,-1.20
2023-01-21T20:16:21.063Z,-1.10
2023-01-21T20:18:49.335Z,-1.00
2023-01-21T20:21:16.651Z,-1.10
2023-01-21T20:23:43.443Z,-1.00
2023-01-21T20:26:18.086Z,-0.80
2023-01-21T20:28:47.805Z,-0.80
2023-01-21T20:31:14.683Z,-0.70
2023-01-21T20:33:43.817Z,-0.70
2023-01-21T20:36:20.038Z,-0.80
2023-01-21T20:38:46.813Z,-0.80
2023-01-21T20:41:13.853Z,-0.80
2023-01-21T20:43:40.738Z,-0.80
2023-01-21T20:46:16.973Z,-0.80
2023-01-21T20:48:44.910Z,-0.90
2023-01-21T20:51:11.929Z,-0.90
2023-01-21T20:53:38.895Z,-1.00
2023-01-21T20:56:23.937Z,-1.10
2023-01-21T20:58:50.668Z,-1.10
2023-01-21T21:01:20.009Z,-1.20
2023-01-21T21:03:46.902Z,-1.30
2023-01-21T21:06:16.474Z,-1.30
2023-01-21T21:08:43.993Z,-1.30
2023-01-21T21:11:10.951Z,-1.40
2023-01-21T21:13:37.685Z,-1.50
2023-01-21T21:16:23.243Z,-1.50
2023-01-21T21:18:50.428Z,-1.50
2023-01-21T21:21:18.332Z,-1.60
2023-01-21T21:23:48.076Z,-1.50
2023-01-21T21:26:22.975Z,-1.40
2023-01-21T21:28:51.237Z,-1.20
2023-01-21T21:31:18.119Z,-1.00
2023-01-21T21:33:44.979Z,-1.00
2023-01-21T21:36:16.001Z,-0.80
2023-01-21T21:38:43.814Z,-0.80
2023-01-21T21:41:35.621Z,-0.90
2023-01-21T21:44:02.788Z,-0.90
2023-01-21T21:46:48.113Z,-0.90
2023-01-21T21:49:15.189Z,-0.90
2023-01-21T21:51:43.515Z,-1.00
2023-01-21T21:54:14.126Z,-1.00
2023-01-21T21:56:42.697Z,-1.00
2023-01-21T21:59:10.358Z,-1.10
2023-01-21T22:01:37.449Z,-1.00
2023-01-21T22:04:04.904Z,-1.00
2023-01-21T22:06:33.294Z,-1.00
2023-01-21T22:09:00.050Z,-1.00
2023-01-21T22:11:28.455Z,-1.00
2023-01-21T22:13:55.713Z,-0.90
2023-01-21T22:16:24.961Z,-0.80
2023-01-21T22:18:52.762Z,-0.70
2023-01-21T22:21:21.834Z,-0.80
2023-01-21T22:23:49.346Z,-0.80
2023-01-21T22:26:18.619Z,-0.80
2023-01-21T22:28:46.177Z,-0.70
2023-01-21T22:31:19.982Z,-0.70
2023-01-21T22:33:46.985Z,-0.60
2023-01-21T22:36:16.057Z,-0.50
2023-01-21T22:38:43.883Z,-0.60
2023-01-21T22:41:12.796Z,-0.60
2023-01-21T22:43:41.864Z,-0.50
2023-01-21T22:46:11.254Z,-0.40
2023-01-21T22:48:38.115Z,-0.40
2023-01-21T22:51:05.063Z,-0.40
2023-01-21T22:53:34.047Z,-0.40
2023-01-21T22:56:03.577Z,-0.40
2023-01-21T22:58:32.399Z,-0.40
2023-01-21T23:01:00.863Z,-0.60
2023-01-21T23:03:28.287Z,-0.70
2023-01-21T23:06:01.622Z,-0.70
2023-01-21T23:08:28.270Z,-0.70
2023-01-21T23:11:01.552Z,-0.70
2023-01-21T23:13:28.325Z,-0.80
2023-01-21T23:15:56.184Z,-0.70
2023-01-21T23:18:25.868Z,-0.60
2023-01-21T23:20:52.650Z,-0.60
2023-01-21T23:23:19.422Z,-0.60
2023-01-21T23:25:46.632Z,-0.60
2023-01-21T23:28:14.468Z,-0.60
2023-01-21T23:30:41.727Z,-0.60
2023-01-21T23:33:08.885Z,-0.70
2023-01-21T23:35:35.606Z,-0.80
2023-01-21T23:38:03.679Z,-0.80
2023-01-21T23:40:30.553Z,-0.60
2023-01-21T23:42:57.780Z,-0.60
2023-01-21T23:45:24.527Z,-0.60
2023-01-21T23:47:51.261Z,-0.50
2023-01-21T23:50:18.357Z,-0.50
2023-01-21T23:52:45.239Z,-0.40
2023-01-21T23:55:12.931Z,-0.50
2023-01-21T23:57:39.665Z,-0.40
